Iron Mountain, Michigan
Current Conditions -  °F | °C
As of 3:54 PM on Sunday 25 Jan 2015 (Local Time) from KIMT Reporting Station
Clear Clear  
Wind Chill: 20°   Ceiling: Unl
Heat Index: 20°   Visibility: 10mi
Dew Point:   Wind: 3mph
Humidity: 55%   Direction: 300°WNW
Pressure: 30.02"   Gusts: NA
Location:  45.82°N, 88.06°W
Report Text: KIMT 252154Z AUTO 30003KT 10SM CLR M07/M14 A3002 RMK AO2 SLP188 T10671144
Loading
Personal Weather Stations






























Interactive Weather Map New forecast layout! Learn more

10-Day Weather Forecast

Advertisements
Track Severe Weather on mobile